Greifenstein — OED3032 — position and weather

sailwx.info

Track history (hours):
 
Tides and Currents Weather Stations Pressure Air Temp Water Temp Dewpoint Dewpoint Depression Visibility Wind Speed Wind Dir Waves Ship Positions

Greifenstein

Last reported at 2017-Dec-11 00:41 UTC. Time now 2017-Dec-14 06:31 UTC.
Position N 47°25' E 019°03'.

Length 186 m; draft 0.2 m.

Type: Ship. MMSI: 203999441.

Date/timePositionNaut miles runAvg speedWind from/ knotsBaromVisibWave heightAir tempDewpointWater temp
2017-Dec-11 00:41N 47°25' E 019°03'2 8.3
2017-Dec-11 00:30N 47°26' E 019°03'4 7.6
2017-Dec-11 00:00N 47°30' E 019°03'65 3.7
2017-Dec-10 06:40N 47°53' E 017°32'0 0.3
2017-Dec-10 05:47N 47°53' E 017°32'1 2.9
2017-Dec-10 05:30N 47°54' E 017°31'3 6.6
2017-Dec-10 05:01N 47°56' E 017°28'4 7.9
2017-Dec-10 04:31N 47°59' E 017°23'4 7.6
2017-Dec-10 04:01N 48°00' E 017°18'4 7.8
2017-Dec-10 03:31N 48°02' E 017°13'4 8.3
2017-Dec-10 03:00N 48°05' E 017°09'  
2017-Dec-04 07:58N 47°34' E 019°04'2 3.9
2017-Dec-04 07:31N 47°32' E 019°03'2 3.9
2017-Dec-04 07:00N 47°30' E 019°03'2 3.8
2017-Dec-04 06:30N 47°29' E 019°04'2 3.2
2017-Dec-04 06:00N 47°27' E 019°03'2 3.4
2017-Dec-04 05:30N 47°25' E 019°03'98 2.0
2017-Dec-02 03:43N 45°48' E 018°51'1 3.2
2017-Dec-02 03:16N 45°47' E 018°52'1 3.3
2017-Dec-02 03:01N 45°47' E 018°53'2 3.4
2017-Dec-02 02:31N 45°45' E 018°54'2 3.5
2017-Dec-02 02:01N 45°43' E 018°54'2 3.4
2017-Dec-02 01:31N 45°42' E 018°55'2 3.3
2017-Dec-02 01:01N 45°41' E 018°57'1 2.6
2017-Dec-02 00:31N 45°40' E 018°58'2 3.4
2017-Dec-02 00:01N 45°38' E 018°56'1 2.8
2017-Dec-01 23:30N 45°37' E 018°55'2 2.9
2017-Dec-01 23:00N 45°36' E 018°55'2 2.9
2017-Dec-01 22:09N 45°34' E 018°54'1 3.4
2017-Dec-01 22:00N 45°33' E 018°55'2 3.2
2017-Dec-01 21:30N 45°32' E 018°56'2 3.0
2017-Dec-01 21:00N 45°32' E 018°58'2 3.1
2017-Dec-01 20:30N 45°33' E 019°00'1 1.9
2017-Dec-01 20:00N 45°33' E 019°02'1 2.7
2017-Dec-01 19:30N 45°32' E 019°03'2 3.0
2017-Dec-01 19:00N 45°32' E 019°05'1 2.9
2017-Dec-01 18:30N 45°31' E 019°06'2 3.0
2017-Dec-01 18:00N 45°29' E 019°05'2 3.4
2017-Dec-01 17:30N 45°29' E 019°03'2 2.3
2017-Dec-01 16:26N 45°28' E 018°59'2 3.1
2017-Dec-01 15:45N 45°26' E 019°00'1 3.5
2017-Dec-01 15:29N 45°26' E 019°01'19 2.3
2017-Dec-01 07:18N 45°14' E 019°22'1 3.3
2017-Dec-01 07:00N 45°14' E 019°23'2 3.4
2017-Dec-01 06:30N 45°14' E 019°26'10 2.8
2017-Dec-01 02:55N 45°13' E 019°40'4 3.3
2017-Dec-01 01:48N 45°14' E 019°45'1 3.3
2017-Dec-01 01:28N 45°13' E 019°47'2 3.3
2017-Dec-01 00:56N 45°13' E 019°49'  
Track history (hours):
 
Tides and Currents Weather Stations Pressure Air Temp Water Temp Dewpoint Dewpoint Depression Visibility Wind Speed Wind Dir Waves Ship Positions

Greifenstein

Last reported at 2017-Dec-11 00:41 UTC. Time now 2017-Dec-14 06:31 UTC.
Position N 47°25' E 019°03'.

Length 186 m; draft 0.2 m.

Type: Ship. MMSI: 203999441.

Date/timePositionNaut miles runAvg speedWind from/ knotsBaromVisibWave heightAir tempDewpointWater temp
2017-Dec-11 00:41N 47°25' E 019°03'2 8.3
2017-Dec-11 00:30N 47°26' E 019°03'4 7.6
2017-Dec-11 00:00N 47°30' E 019°03'65 3.7
2017-Dec-10 06:40N 47°53' E 017°32'0 0.3
2017-Dec-10 05:47N 47°53' E 017°32'1 2.9
2017-Dec-10 05:30N 47°54' E 017°31'3 6.6
2017-Dec-10 05:01N 47°56' E 017°28'4 7.9
2017-Dec-10 04:31N 47°59' E 017°23'4 7.6
2017-Dec-10 04:01N 48°00' E 017°18'4 7.8
2017-Dec-10 03:31N 48°02' E 017°13'4 8.3
2017-Dec-10 03:00N 48°05' E 017°09'  
2017-Dec-04 07:58N 47°34' E 019°04'2 3.9
2017-Dec-04 07:31N 47°32' E 019°03'2 3.9
2017-Dec-04 07:00N 47°30' E 019°03'2 3.8
2017-Dec-04 06:30N 47°29' E 019°04'2 3.2
2017-Dec-04 06:00N 47°27' E 019°03'2 3.4
2017-Dec-04 05:30N 47°25' E 019°03'98 2.0
2017-Dec-02 03:43N 45°48' E 018°51'1 3.2
2017-Dec-02 03:16N 45°47' E 018°52'1 3.3
2017-Dec-02 03:01N 45°47' E 018°53'2 3.4
2017-Dec-02 02:31N 45°45' E 018°54'2 3.5
2017-Dec-02 02:01N 45°43' E 018°54'2 3.4
2017-Dec-02 01:31N 45°42' E 018°55'2 3.3
2017-Dec-02 01:01N 45°41' E 018°57'1 2.6
2017-Dec-02 00:31N 45°40' E 018°58'2 3.4
2017-Dec-02 00:01N 45°38' E 018°56'1 2.8
2017-Dec-01 23:30N 45°37' E 018°55'2 2.9
2017-Dec-01 23:00N 45°36' E 018°55'2 2.9
2017-Dec-01 22:09N 45°34' E 018°54'1 3.4
2017-Dec-01 22:00N 45°33' E 018°55'2 3.2
2017-Dec-01 21:30N 45°32' E 018°56'2 3.0
2017-Dec-01 21:00N 45°32' E 018°58'2 3.1
2017-Dec-01 20:30N 45°33' E 019°00'1 1.9
2017-Dec-01 20:00N 45°33' E 019°02'1 2.7
2017-Dec-01 19:30N 45°32' E 019°03'2 3.0
2017-Dec-01 19:00N 45°32' E 019°05'1 2.9
2017-Dec-01 18:30N 45°31' E 019°06'2 3.0
2017-Dec-01 18:00N 45°29' E 019°05'2 3.4
2017-Dec-01 17:30N 45°29' E 019°03'2 2.3
2017-Dec-01 16:26N 45°28' E 018°59'2 3.1
2017-Dec-01 15:45N 45°26' E 019°00'1 3.5
2017-Dec-01 15:29N 45°26' E 019°01'19 2.3
2017-Dec-01 07:18N 45°14' E 019°22'1 3.3
2017-Dec-01 07:00N 45°14' E 019°23'2 3.4
2017-Dec-01 06:30N 45°14' E 019°26'10 2.8
2017-Dec-01 02:55N 45°13' E 019°40'4 3.3
2017-Dec-01 01:48N 45°14' E 019°45'1 3.3
2017-Dec-01 01:28N 45°13' E 019°47'2 3.3
2017-Dec-01 00:56N 45°13' E 019°49'  

Dump ship's entire track history